Time;durP1;ratioP1;P1;durP2;ratioP2;P2;SDS_P1;SDS_P2;PMS_P1;PMS_P2;Temp;Humidity;BMP_temperature;BMP_pressure;BME280_temperature;BME280_humidity;BME280_pressure;Samples;Min_cycle;Max_cycle;Signal;HPM_P1;HPM_P2
2021/05/30 00:01:59;;;;;;;11.68;3.30;;;;;;;21.18;57.59;100354.53;5042652;28;20028;-72
2021/05/30 00:04:24;;;;;;;12.48;3.42;;;;;;;21.27;57.05;100364.97;5042005;28;20047;-77
2021/05/30 00:06:50;;;;;;;12.70;3.00;;;;;;;21.35;58.33;100375.41;5045298;28;20021;-73
2021/05/30 00:09:16;;;;;;;8.50;2.80;;;;;;;21.24;58.36;100348.38;5052786;28;20079;-78
2021/05/30 00:11:42;;;;;;;15.93;3.35;;;;;;;21.41;58.31;100367.47;5036661;28;20033;-72
2021/05/30 00:14:07;;;;;;;6.57;2.80;;;;;;;21.36;58.44;100353.50;5032125;28;20436;-73
2021/05/30 00:16:33;;;;;;;8.73;2.65;;;;;;;21.39;56.82;100361.34;5034224;28;20026;-75
2021/05/30 00:19:00;;;;;;;8.52;2.60;;;;;;;21.38;56.16;100367.47;5033650;28;20458;-73
2021/05/30 00:21:26;;;;;;;5.45;2.10;;;;;;;21.36;55.88;100361.38;5046501;28;20036;-71
2021/05/30 00:23:52;;;;;;;6.85;2.50;;;;;;;21.03;56.25;100297.78;5034371;28;20087;-75
2021/05/30 00:26:18;;;;;;;5.57;2.00;;;;;;;21.38;55.92;100353.50;5033842;28;20025;-71
2021/05/30 00:28:43;;;;;;;8.05;2.72;;;;;;;21.39;55.28;100356.09;5033879;28;20112;-73
2021/05/30 00:31:09;;;;;;;5.60;1.88;;;;;;;21.42;54.73;100358.72;5034017;28;20025;-71
2021/05/30 00:33:34;;;;;;;7.30;2.28;;;;;;;21.37;54.83;100368.38;5033365;28;20084;-72
2021/05/30 00:36:00;;;;;;;4.13;2.13;;;;;;;21.16;55.13;100330.06;5034196;28;20021;-73
2021/05/30 00:38:25;;;;;;;8.40;2.30;;;;;;;21.09;55.70;100318.75;5025345;28;20068;-73
2021/05/30 00:40:53;;;;;;;10.52;2.00;;;;;;;21.40;56.12;100370.97;5053183;28;20013;-71
2021/05/30 00:43:20;;;;;;;6.70;2.35;;;;;;;21.39;56.54;100360.50;5053759;28;20093;-75
2021/05/30 00:45:47;;;;;;;5.72;2.40;;;;;;;21.39;55.83;100360.50;5053445;28;20021;-74
2021/05/30 00:48:13;;;;;;;5.97;2.13;;;;;;;21.27;56.25;100364.97;5053559;28;20033;-73
2021/05/30 00:50:38;;;;;;;6.78;2.50;;;;;;;21.33;55.94;100367.53;5069739;28;20102;-72
2021/05/30 00:53:06;;;;;;;5.43;2.47;;;;;;;21.26;56.30;100355.34;5055642;28;20058;-73
2021/05/30 00:55:32;;;;;;;7.82;3.20;;;;;;;20.83;59.47;100284.84;5073227;28;20033;-74
2021/05/30 00:57:57;;;;;;;6.80;3.25;;;;;;;20.84;59.51;100294.47;5073235;28;20028;-72
2021/05/30 01:00:23;;;;;;;8.98;3.10;;;;;;;21.20;60.02;100365.91;5073402;28;20502;-73
2021/05/30 01:02:49;;;;;;;5.75;2.92;;;;;;;21.20;59.46;100370.25;5073308;28;20074;-74
2021/05/30 01:05:14;;;;;;;5.32;2.63;;;;;;;20.96;59.00;100380.97;5073619;28;20029;-74
2021/05/30 01:07:46;;;;;;;6.60;2.45;;;;;;;20.67;60.20;100383.75;5072917;28;20494;-73
2021/05/30 01:10:29;;;;;;;3.45;2.40;;;;;;;20.45;61.78;100383.88;5073217;28;20052;-73
2021/05/30 01:12:56;;;;;;;7.30;2.65;;;;;;;20.05;62.88;100384.06;5073360;28;20036;-72
2021/05/30 01:15:22;;;;;;;5.72;3.00;;;;;;;19.28;64.63;100332.69;5073210;28;20047;-70
2021/05/30 01:17:54;;;;;;;10.13;3.13;;;;;;;19.32;65.07;100405.09;5073411;28;20028;-73
2021/05/30 01:20:22;;;;;;;6.93;3.10;;;;;;;19.17;65.27;100397.25;5072818;28;20442;-77
2021/05/30 01:22:49;;;;;;;6.22;2.70;;;;;;;19.12;65.83;100381.53;5037496;28;20029;-72
2021/05/30 01:25:19;;;;;;;6.45;2.70;;;;;;;19.15;66.17;100397.25;5072766;28;20040;-75
2021/05/30 01:27:45;;;;;;;7.93;2.97;;;;;;;18.90;65.67;100342.28;5072752;28;20097;-73
2021/05/30 01:30:13;;;;;;;8.85;2.97;;;;;;;19.04;65.39;100365.84;5072559;28;20103;-71
2021/05/30 01:32:38;;;;;;;7.15;2.78;;;;;;;19.17;65.05;100381.53;5037354;28;20040;-72
2021/05/30 01:35:05;;;;;;;6.32;2.80;;;;;;;19.08;64.19;100385.88;5072862;28;20032;-74
2021/05/30 01:37:31;;;;;;;4.00;2.80;;;;;;;19.19;64.19;100390.25;5072202;28;20070;-72
2021/05/30 01:39:57;;;;;;;7.15;2.85;;;;;;;19.29;63.02;100381.53;5072739;28;20047;-71
2021/05/30 01:42:22;;;;;;;4.72;2.60;;;;;;;19.48;62.76;100390.25;5072067;28;20448;-72
2021/05/30 01:44:48;;;;;;;4.35;2.55;;;;;;;19.46;62.98;100367.56;5072464;28;20020;-72
2021/05/30 01:47:13;;;;;;;4.40;2.83;;;;;;;19.67;63.57;100382.38;5072319;28;20036;-72
2021/05/30 01:49:40;;;;;;;6.00;2.80;;;;;;;19.67;63.46;100391.09;5072514;28;20088;-75
2021/05/30 01:52:06;;;;;;;3.58;2.40;;;;;;;19.36;64.10;100328.28;5072014;28;20024;-71
2021/05/30 01:54:32;;;;;;;3.63;2.53;;;;;;;19.58;64.52;100380.63;5072087;28;20459;-73
2021/05/30 01:56:59;;;;;;;5.38;2.90;;;;;;;19.65;64.87;100389.34;5035781;28;20032;-71
2021/05/30 01:59:27;;;;;;;5.35;2.80;;;;;;;19.75;64.89;100382.34;5072035;28;20031;-72
2021/05/30 02:01:56;;;;;;;8.82;3.10;;;;;;;19.78;64.70;100383.22;5072277;28;20051;-71
2021/05/30 02:04:39;;;;;;;6.75;2.70;;;;;;;19.80;64.82;100394.56;5072315;28;20028;-75
2021/05/30 02:07:04;;;;;;;7.22;2.95;;;;;;;19.81;64.45;100379.72;5072052;28;20035;-72
2021/05/30 02:09:31;;;;;;;8.80;3.10;;;;;;;19.86;64.75;100381.50;5072081;28;20441;-73
2021/05/30 02:11:57;;;;;;;6.30;2.97;;;;;;;20.04;63.98;100398.03;5072030;28;20028;-78
2021/05/30 02:14:23;;;;;;;7.68;2.80;;;;;;;19.83;63.95;100368.38;5071845;28;20029;-74
2021/05/30 02:16:49;;;;;;;8.32;2.80;;;;;;;19.94;64.23;100414.63;5071573;28;20040;-73
2021/05/30 02:19:15;;;;;;;7.63;2.60;;;;;;;19.91;64.14;100397.19;5071512;28;20032;-74
2021/05/30 02:21:46;;;;;;;6.25;2.75;;;;;;;19.78;64.19;100385.84;5071581;28;20021;-73
2021/05/30 02:24:14;;;;;;;3.85;2.50;;;;;;;19.63;64.07;100359.69;5071653;28;20799;-77
2021/05/30 02:26:40;;;;;;;8.43;3.28;;;;;;;19.66;64.31;100351.81;5071660;28;20036;-77
2021/05/30 02:29:07;;;;;;;7.68;2.97;;;;;;;19.45;64.87;100319.56;5071631;28;20032;-73
2021/05/30 02:31:33;;;;;;;6.25;2.72;;;;;;;19.79;64.91;100384.97;5071580;28;20170;-75
2021/05/30 02:33:58;;;;;;;11.20;2.83;;;;;;;19.75;64.78;100392.81;5071284;28;20100;-75
2021/05/30 02:36:25;;;;;;;4.30;2.75;;;;;;;19.70;64.76;100392.81;5071181;28;20025;-74
2021/05/30 02:38:50;;;;;;;5.93;2.70;;;;;;;19.68;64.51;100384.97;5071034;28;20407;-73
2021/05/30 02:41:17;;;;;;;6.30;3.03;;;;;;;19.73;64.37;100396.31;5071421;28;20044;-73
2021/05/30 02:43:42;;;;;;;4.43;2.85;;;;;;;19.62;64.18;100373.66;5071130;28;20036;-74
2021/05/30 02:46:08;;;;;;;7.13;2.72;;;;;;;19.82;64.71;100394.56;5053568;28;20515;-76
2021/05/30 02:48:35;;;;;;;8.07;3.00;;;;;;;19.77;64.64;100389.31;5071629;28;20024;-74
2021/05/30 02:51:01;;;;;;;5.03;2.95;;;;;;;19.64;64.56;100395.44;5070428;28;20419;-73
2021/05/30 02:53:30;;;;;;;6.05;2.70;;;;;;;19.47;64.24;100409.44;5071416;28;20025;-74
2021/05/30 02:55:57;;;;;;;5.65;2.63;;;;;;;19.03;64.19;100351.00;5053126;28;20025;-74
2021/05/30 02:58:23;;;;;;;4.82;2.63;;;;;;;19.13;64.45;100359.72;5071073;28;20039;-72
2021/05/30 03:00:48;;;;;;;7.15;3.10;;;;;;;19.51;64.14;100405.94;5070764;28;20036;-74
2021/05/30 03:03:14;;;;;;;6.53;2.80;;;;;;;19.52;64.10;100398.97;5070892;28;20027;-73
2021/05/30 03:05:39;;;;;;;8.60;3.10;;;;;;;19.65;63.67;100416.44;5070686;28;20032;-74
2021/05/30 03:08:05;;;;;;;7.82;3.00;;;;;;;19.67;63.70;100414.66;5070060;28;20032;-74
2021/05/30 03:10:31;;;;;;;5.72;3.15;;;;;;;19.70;63.27;100404.19;5053273;28;20060;-72
2021/05/30 03:12:56;;;;;;;4.38;3.30;;;;;;;19.54;64.02;100386.75;5053152;28;20466;-73
2021/05/30 03:15:22;;;;;;;8.18;2.90;;;;;;;19.54;64.58;100407.72;5070894;28;20024;-73
2021/05/30 03:17:47;;;;;;;6.45;2.95;;;;;;;19.47;64.25;100403.34;5070688;28;20024;-74
2021/05/30 03:20:13;;;;;;;5.25;3.20;;;;;;;19.50;64.65;100413.81;5070587;28;20085;-73
2021/05/30 03:22:39;;;;;;;5.85;3.45;;;;;;;19.19;64.70;100370.19;5071071;28;20033;-74
2021/05/30 03:25:05;;;;;;;8.48;3.50;;;;;;;19.54;64.58;100418.19;5070799;28;20027;-75
2021/05/30 03:27:30;;;;;;;7.85;3.05;;;;;;;19.60;64.39;100418.19;5071186;28;20035;-72
2021/05/30 03:29:57;;;;;;;8.05;3.20;;;;;;;19.52;64.59;100410.31;5071271;28;20029;-73
2021/05/30 03:32:23;;;;;;;5.43;3.50;;;;;;;19.54;65.11;100412.94;5070329;28;20033;-73
2021/05/30 03:34:48;;;;;;;6.18;3.30;;;;;;;19.55;64.77;100404.19;5070492;28;20031;-74
2021/05/30 03:37:14;;;;;;;5.20;3.00;;;;;;;19.58;64.27;100413.78;5070655;28;20028;-73
2021/05/30 03:39:42;;;;;;;5.95;3.60;;;;;;;19.52;64.18;100397.22;5071151;28;20025;-78
2021/05/30 03:42:10;;;;;;;7.05;3.55;;;;;;;19.66;63.60;100412.91;5070442;28;20029;-73
2021/05/30 03:44:36;;;;;;;3.97;2.50;;;;;;;19.63;60.66;100401.59;5070782;28;20024;-77
2021/05/30 03:47:02;;;;;;;4.13;2.75;;;;;;;19.70;59.68;100408.53;5070777;28;20028;-78
2021/05/30 03:49:27;;;;;;;3.30;2.58;;;;;;;19.70;59.58;100391.09;5070710;28;20079;-73
2021/05/30 03:51:53;;;;;;;2.85;2.35;;;;;;;19.80;57.86;100412.91;5070666;28;20035;-73
2021/05/30 03:54:18;;;;;;;3.75;2.60;;;;;;;19.79;57.38;100408.53;5070323;28;20028;-74
2021/05/30 03:56:44;;;;;;;4.18;2.50;;;;;;;19.83;56.99;100410.28;5041679;28;20025;-74
2021/05/30 03:59:09;;;;;;;3.92;2.30;;;;;;;19.91;56.14;100410.28;5051373;28;20432;-73
2021/05/30 04:01:37;;;;;;;6.22;3.10;;;;;;;19.85;57.11;100392.84;5055157;28;20024;-74
2021/05/30 04:04:03;;;;;;;5.20;2.35;;;;;;;19.88;56.42;100381.47;5047194;28;20047;-72
2021/05/30 04:06:28;;;;;;;5.05;2.40;;;;;;;19.91;56.06;100377.97;5067165;28;20024;-78
2021/05/30 04:08:54;;;;;;;4.85;2.45;;;;;;;20.02;54.84;100394.53;5069424;28;20429;-73
2021/05/30 04:11:19;;;;;;;4.03;2.40;;;;;;;20.13;55.66;100403.22;5068542;28;20448;-73
2021/05/30 04:13:45;;;;;;;4.55;2.47;;;;;;;20.18;54.94;100408.47;5067916;28;20078;-73
2021/05/30 04:16:10;;;;;;;6.05;2.72;;;;;;;20.15;54.98;100392.72;5068685;28;20051;-74
2021/05/30 04:18:36;;;;;;;5.13;2.80;;;;;;;20.01;54.70;100392.78;5064446;28;20029;-76
2021/05/30 04:21:42;;;;;;;7.50;2.85;;;;;;;20.09;55.51;100417.22;5071287;28;20036;-75
2021/05/30 04:24:08;;;;;;;10.38;3.17;;;;;;;19.54;58.40;100330.03;5054213;28;20024;-72
2021/05/30 04:26:33;;;;;;;7.65;3.53;;;;;;;19.88;61.68;100412.91;5072040;28;20024;-74
2021/05/30 04:28:59;;;;;;;7.97;3.45;;;;;;;19.70;64.14;100408.53;5070445;28;20129;-75
2021/05/30 04:31:25;;;;;;;12.80;3.65;;;;;;;19.25;65.44;100364.06;5072136;28;20090;-74
2021/05/30 04:33:51;;;;;;;10.27;3.35;;;;;;;19.21;65.24;100360.59;5070296;28;20040;-75
2021/05/30 04:36:17;;;;;;;8.05;3.42;;;;;;;19.50;64.99;100408.56;5072307;28;20021;-74
2021/05/30 04:38:42;;;;;;;8.75;3.50;;;;;;;19.48;65.72;100402.47;5070300;28;20145;-74
2021/05/30 04:41:08;;;;;;;11.77;3.40;;;;;;;19.47;64.55;100416.44;5072110;28;20112;-74
2021/05/30 04:43:34;;;;;;;11.88;3.42;;;;;;;19.59;63.52;100426.91;5071895;28;20475;-75
2021/05/30 04:46:01;;;;;;;6.60;3.47;;;;;;;19.27;62.97;100377.19;5070925;28;20498;-74
2021/05/30 04:48:27;;;;;;;6.93;3.63;;;;;;;19.40;63.32;100423.41;5072474;28;20059;-74
2021/05/30 04:53:55;;;;;;;3.65;2.40;;;;;;;19.11;63.23;100423.41;5011158;28;20041;-75
2021/05/30 04:56:22;;;;;;;4.18;2.50;;;;;;;18.82;62.06;100434.66;5011528;28;20044;-73
2021/05/30 04:58:48;;;;;;;3.40;2.70;;;;;;;18.61;63.31;100422.41;4995113;28;20026;-74
2021/05/30 05:01:14;;;;;;;4.22;2.42;;;;;;;18.42;62.21;100376.16;5009517;28;20034;-75
2021/05/30 05:03:39;;;;;;;3.35;2.70;;;;;;;18.78;62.59;100422.44;5011376;28;20030;-74
2021/05/30 05:06:05;;;;;;;4.82;2.33;;;;;;;18.90;63.13;100440.78;5010980;28;20036;-73
2021/05/30 05:08:31;;;;;;;3.40;2.30;;;;;;;18.85;63.13;100425.06;4962134;28;20062;-74
2021/05/30 05:10:56;;;;;;;3.75;2.50;;;;;;;18.80;61.98;100439.88;5010931;28;20112;-74
2021/05/30 05:13:22;;;;;;;4.45;2.55;;;;;;;19.00;61.97;100426.00;5010702;28;20029;-72
2021/05/30 05:15:49;;;;;;;4.10;2.78;;;;;;;19.19;61.16;100442.59;5011104;28;20042;-74
2021/05/30 05:18:16;;;;;;;4.30;2.53;;;;;;;19.36;60.65;100450.47;5010810;28;20108;-74
2021/05/30 05:20:43;;;;;;;4.65;2.65;;;;;;;19.43;60.52;100433.88;5010951;28;20381;-74
2021/05/30 05:23:08;;;;;;;5.22;2.95;;;;;;;19.55;59.54;100440.84;5010587;28;20034;-73
2021/05/30 05:25:36;;;;;;;5.18;2.83;;;;;;;19.69;59.11;100446.09;5011159;28;20030;-73
2021/05/30 05:28:03;;;;;;;6.88;2.85;;;;;;;19.66;58.33;100423.38;5046249;28;20532;-73
2021/05/30 05:30:28;;;;;;;6.60;2.80;;;;;;;19.92;58.10;100451.31;5069277;28;20024;-77
2021/05/30 05:32:54;;;;;;;6.05;2.90;;;;;;;19.88;57.67;100442.59;5071405;28;20024;-72
2021/05/30 05:35:19;;;;;;;7.78;3.20;;;;;;;19.69;57.21;100441.72;5069940;28;20031;-74
2021/05/30 05:37:45;;;;;;;8.23;2.90;;;;;;;19.58;58.08;100455.69;5071282;28;20402;-73
2021/05/30 05:40:11;;;;;;;5.53;3.08;;;;;;;19.71;56.96;100446.97;5053597;28;20028;-75
2021/05/30 05:42:37;;;;;;;7.03;2.88;;;;;;;19.82;56.64;100444.34;5051736;28;20020;-73
2021/05/30 05:45:05;;;;;;;7.55;2.90;;;;;;;19.99;57.08;100449.59;5071514;28;20036;-74
2021/05/30 05:47:30;;;;;;;8.00;3.15;;;;;;;20.11;58.55;100451.28;5069937;28;20120;-76
2021/05/30 05:49:56;;;;;;;6.45;3.10;;;;;;;20.02;56.98;100428.59;5053367;28;20115;-75
2021/05/30 05:52:22;;;;;;;8.18;3.38;;;;;;;20.00;57.64;100439.09;5069393;28;20017;-72
2021/05/30 05:54:50;;;;;;;5.20;3.20;;;;;;;19.48;56.96;100397.25;5071230;28;20094;-74
2021/05/30 05:57:17;;;;;;;4.93;3.30;;;;;;;19.77;57.91;100446.94;5070440;28;20429;-78
2021/05/30 05:59:42;;;;;;;5.03;2.80;;;;;;;19.76;57.64;100434.72;5052612;28;20020;-74
2021/05/30 06:02:07;;;;;;;7.07;3.97;;;;;;;19.88;57.65;100433.88;5071116;28;20089;-73
2021/05/30 06:04:33;;;;;;;6.32;3.65;;;;;;;19.50;57.66;100366.66;5069322;28;20096;-71
2021/05/30 06:07:00;;;;;;;10.02;3.60;;;;;;;19.43;57.41;100378.91;5052743;28;20022;-72
2021/05/30 06:09:25;;;;;;;8.05;2.85;;;;;;;19.80;55.12;100436.47;5071797;28;20543;-75
2021/05/30 06:11:51;;;;;;;5.00;3.25;;;;;;;19.72;55.54;100428.63;5071765;28;20016;-73
2021/05/30 06:14:16;;;;;;;7.43;3.70;;;;;;;19.83;54.85;100435.63;5072065;28;20434;-72
2021/05/30 06:16:42;;;;;;;6.55;2.70;;;;;;;20.04;54.05;100434.72;5071901;28;20621;-72
2021/05/30 06:19:07;;;;;;;4.53;2.50;;;;;;;20.19;53.95;100439.91;5071862;28;20107;-73
2021/05/30 06:21:33;;;;;;;5.40;2.63;;;;;;;20.34;51.66;100438.13;5039646;28;20033;-73
2021/05/30 06:23:58;;;;;;;3.67;2.10;;;;;;;20.45;51.85;100430.19;5035318;28;20025;-74
2021/05/30 06:26:24;;;;;;;6.65;2.03;;;;;;;20.51;50.49;100423.19;5053292;28;20056;-73
2021/05/30 06:28:49;;;;;;;2.22;1.95;;;;;;;20.77;52.34;100443.19;5054775;28;20017;-73
2021/05/30 06:31:15;;;;;;;4.80;2.15;;;;;;;20.62;52.40;100425.75;5035157;28;20036;-75
2021/05/30 06:33:40;;;;;;;5.65;2.00;;;;;;;20.72;51.76;100431.84;5054628;28;20065;-72
2021/05/30 06:36:06;;;;;;;3.60;2.15;;;;;;;20.90;51.86;100448.34;5052951;28;20021;-74
2021/05/30 06:38:32;;;;;;;2.67;2.20;;;;;;;20.72;51.46;100444.94;5054489;28;20071;-73
2021/05/30 06:40:57;;;;;;;2.97;2.05;;;;;;;20.76;52.53;100446.69;5015569;28;20483;-73
2021/05/30 06:43:23;;;;;;;2.72;2.25;;;;;;;20.83;51.07;100451.00;5012640;28;20052;-73
2021/05/30 06:45:49;;;;;;;4.78;2.05;;;;;;;20.86;50.00;100439.66;5025974;28;20037;-73
2021/05/30 06:48:15;;;;;;;4.95;2.20;;;;;;;20.71;51.24;100438.00;5027449;28;20084;-74
2021/05/30 06:50:40;;;;;;;4.18;2.10;;;;;;;20.73;51.38;100438.81;5025352;28;20041;-74
2021/05/30 06:53:05;;;;;;;3.55;1.83;;;;;;;20.80;50.20;100442.31;5027292;28;20030;-74
2021/05/30 06:55:31;;;;;;;3.08;2.00;;;;;;;20.82;51.91;100427.41;5008920;28;20534;-75
2021/05/30 06:57:56;;;;;;;5.95;2.20;;;;;;;21.03;49.97;100436.91;5027364;28;20526;-74
2021/05/30 07:00:22;;;;;;;2.67;2.00;;;;;;;21.04;50.12;100427.28;5027388;28;20467;-70
2021/05/30 07:02:49;;;;;;;2.58;2.05;;;;;;;20.94;49.83;100408.09;5008830;28;20112;-74
2021/05/30 07:05:16;;;;;;;3.50;2.10;;;;;;;21.00;49.90;100423.81;5027048;28;20034;-70
2021/05/30 07:07:42;;;;;;;2.03;1.77;;;;;;;20.93;48.64;100411.59;5027387;28;20068;-72
2021/05/30 07:10:11;;;;;;;3.60;2.08;;;;;;;21.09;48.67;100418.47;5028927;28;20057;-72
2021/05/30 07:12:36;;;;;;;3.72;1.85;;;;;;;21.41;46.28;100432.22;5061596;28;20037;-73
2021/05/30 07:15:02;;;;;;;2.10;1.63;;;;;;;21.15;47.22;100365.06;5067739;28;20043;-75
2021/05/30 07:17:28;;;;;;;3.97;1.90;;;;;;;21.48;49.71;100412.91;5071366;28;20116;-74
2021/05/30 07:19:55;;;;;;;3.97;1.95;;;;;;;21.22;49.06;100384.25;5071259;28;20039;-74
2021/05/30 07:22:21;;;;;;;5.35;2.30;;;;;;;21.57;47.35;100417.25;5070702;28;20029;-76
2021/05/30 07:24:46;;;;;;;2.58;1.70;;;;;;;21.70;47.91;100411.00;5071569;28;20036;-76
2021/05/30 07:27:12;;;;;;;3.15;2.00;;;;;;;21.75;48.58;100382.06;5071643;28;20082;-77
2021/05/30 07:29:37;;;;;;;3.33;2.22;;;;;;;21.96;48.83;100431.75;5071099;28;20089;-76
2021/05/30 07:32:03;;;;;;;2.50;1.90;;;;;;;21.87;49.64;100423.09;5071246;28;20082;-76
2021/05/30 07:34:28;;;;;;;7.03;2.13;;;;;;;21.75;50.02;100413.59;5071049;28;20025;-77
2021/05/30 07:36:54;;;;;;;3.53;1.95;;;;;;;22.01;50.41;100418.56;5071392;28;20471;-76
2021/05/30 07:39:19;;;;;;;2.83;1.60;;;;;;;21.62;46.84;100337.53;5071421;28;20106;-76
2021/05/30 07:41:45;;;;;;;5.05;1.98;;;;;;;22.16;47.01;100393.84;5071323;28;20368;-76
2021/05/30 07:44:10;;;;;;;4.93;1.95;;;;;;;22.31;48.33;100408.56;5071269;28;20035;-76
2021/05/30 07:46:37;;;;;;;4.13;2.33;;;;;;;22.24;46.96;100420.94;5071305;28;20020;-76
2021/05/30 07:49:02;;;;;;;5.30;2.33;;;;;;;22.10;46.16;100414.94;5071121;28;20059;-76
2021/05/30 07:51:28;;;;;;;5.00;2.00;;;;;;;22.06;48.07;100424.63;5071470;28;20021;-76
2021/05/30 07:53:53;;;;;;;3.42;2.10;;;;;;;22.05;47.96;100411.50;5071645;28;20021;-76
2021/05/30 07:56:19;;;;;;;4.50;2.00;;;;;;;21.66;49.13;100354.13;5074949;28;20020;-76
2021/05/30 07:58:44;;;;;;;4.20;1.98;;;;;;;22.07;50.05;100413.22;5075251;28;20032;-76
2021/05/30 08:01:09;;;;;;;2.10;1.77;;;;;;;22.22;47.93;100411.28;5074890;28;20023;-73
2021/05/30 08:03:35;;;;;;;4.68;2.05;;;;;;;22.36;47.31;100413.78;5074563;28;20040;-73
2021/05/30 08:06:00;;;;;;;2.15;1.90;;;;;;;22.15;45.40;100371.06;5056986;28;20054;-73
2021/05/30 08:08:26;;;;;;;6.35;2.17;;;;;;;22.24;46.50;100364.81;5075123;28;20029;-76
2021/05/30 08:10:51;;;;;;;4.05;1.98;;;;;;;22.26;48.46;100363.91;5075052;28;20020;-73
2021/05/30 08:13:17;;;;;;;2.22;1.77;;;;;;;22.50;48.00;100397.84;5074713;28;20082;-76
2021/05/30 08:15:43;;;;;;;3.13;2.10;;;;;;;22.67;46.73;100411.63;5075032;28;20056;-74
2021/05/30 08:18:08;;;;;;;2.58;1.98;;;;;;;22.57;49.98;100341.63;5074703;28;20036;-74
2021/05/30 08:20:34;;;;;;;3.60;2.15;;;;;;;22.68;46.31;100359.84;5074119;28;20392;-77
2021/05/30 08:22:59;;;;;;;2.67;2.10;;;;;;;23.00;48.96;100398.84;5065716;28;20459;-74
2021/05/30 08:25:26;;;;;;;5.60;2.22;;;;;;;23.04;49.84;100402.31;5054513;28;20027;-73
2021/05/30 08:27:52;;;;;;;3.70;2.38;;;;;;;23.15;49.61;100404.78;5054557;28;20108;-75
2021/05/30 08:30:19;;;;;;;4.03;2.33;;;;;;;23.20;49.63;100403.84;5054438;28;20021;-78
2021/05/30 08:32:45;;;;;;;3.78;2.25;;;;;;;23.24;45.95;100410.81;5054101;28;20063;-74
2021/05/30 08:35:11;;;;;;;3.25;2.03;;;;;;;23.06;45.35;100404.03;5056685;28;20079;-73
2021/05/30 08:37:41;;;;;;;8.65;2.60;;;;;;;23.07;47.66;100404.91;5073602;28;20037;-76
2021/05/30 08:40:06;;;;;;;;;;;;;;;23.15;46.92;100402.16;5063658;28;20392;-81
2021/05/30 08:42:32;;;;;;;7.07;2.40;;;;;;;23.21;49.49;100407.34;5063664;28;19912;-74
2021/05/30 08:44:58;;;;;;;16.85;2.95;;;;;;;23.39;47.02;100396.50;5064780;28;20036;-71
2021/05/30 08:47:24;;;;;;;6.35;2.40;;;;;;;23.46;49.02;100388.50;5027096;28;20128;-74
2021/05/30 08:49:50;;;;;;;5.38;2.15;;;;;;;23.24;46.98;100330.91;5063753;28;20492;-73
2021/05/30 08:52:16;;;;;;;5.72;2.10;;;;;;;23.69;45.85;100398.59;5064034;28;20037;-73
2021/05/30 08:54:42;;;;;;;3.67;2.20;;;;;;;23.76;47.95;100402.88;5043507;28;20048;-72
2021/05/30 08:57:08;;;;;;;3.78;2.00;;;;;;;23.36;44.84;100338.59;5063891;28;20467;-73
2021/05/30 08:59:35;;;;;;;3.40;2.30;;;;;;;23.79;46.32;100394.91;5063806;28;20081;-74
2021/05/30 09:02:08;;;;;;;7.68;2.83;;;;;;;23.80;46.34;100390.50;5061529;28;20033;-72
2021/05/30 09:04:37;;;;;;;9.00;2.78;;;;;;;23.97;50.30;100391.06;5061861;28;20111;-74
2021/05/30 09:07:03;;;;;;;7.50;1.83;;;;;;;24.18;44.82;100391.53;5067081;28;20021;-74
2021/05/30 09:09:48;;;;;;;3.85;2.45;;;;;;;24.28;44.71;100382.53;5062345;28;20061;-73
2021/05/30 09:12:25;;;;;;;5.07;2.40;;;;;;;24.43;46.07;100391.88;5044126;28;20032;-75
2021/05/30 09:14:53;;;;;;;8.70;3.05;;;;;;;24.47;43.18;100377.72;5026707;28;20033;-77
2021/05/30 09:17:24;;;;;;;4.82;2.45;;;;;;;24.46;44.68;100370.72;5062825;28;20552;-75
2021/05/30 09:19:55;;;;;;;4.10;2.30;;;;;;;24.46;43.18;100375.09;5065367;28;20082;-75
2021/05/30 09:22:36;;;;;;;3.70;2.50;;;;;;;24.59;43.80;100387.13;5064746;28;20024;-74
2021/05/30 09:25:12;;;;;;;8.13;2.28;;;;;;;24.66;40.97;100370.28;5071673;28;20082;-75
2021/05/30 09:27:42;;;;;;;6.82;2.45;;;;;;;24.74;41.01;100367.47;5055707;28;20489;-74
2021/05/30 09:30:13;;;;;;;4.60;2.50;;;;;;;24.56;41.90;100315.94;5073512;28;20031;-74
2021/05/30 09:32:54;;;;;;;6.95;2.60;;;;;;;24.99;42.67;100359.81;5073015;28;20039;-74
2021/05/30 09:35:24;;;;;;;7.22;3.15;;;;;;;25.12;40.22;100348.94;5072718;28;20035;-77
2021/05/30 09:38:01;;;;;;;11.80;3.20;;;;;;;25.26;40.18;100365.31;5073451;28;20025;-76
2021/05/30 09:40:48;;;;;;;10.23;2.97;;;;;;;25.19;40.40;100329.41;5054224;28;20123;-75
2021/05/30 09:43:27;;;;;;;12.07;2.90;;;;;;;25.48;42.54;100356.84;5043715;28;20021;-77
2021/05/30 09:46:07;;;;;;;7.75;2.15;;;;;;;25.63;41.07;100345.88;5066306;28;20060;-77
2021/05/30 09:48:33;;;;;;;;;;;;;;;25.74;40.75;100348.22;5070045;28;20021;-76
2021/05/30 09:51:12;;;;;;;10.98;2.38;;;;;;;25.81;38.52;100343.63;5062096;28;20058;-72
2021/05/30 09:53:41;;;;;;;5.90;2.50;;;;;;;25.28;38.46;100286.88;5063173;28;20489;-76
2021/05/30 09:56:37;;;;;;;9.33;2.67;;;;;;;25.29;40.59;100330.88;5061851;28;20060;-75
2021/05/30 09:59:11;;;;;;;4.78;2.65;;;;;;;25.01;41.29;100341.28;5045527;28;20044;-76
2021/05/30 10:01:59;;;;;;;7.10;2.65;;;;;;;24.39;41.47;100353.28;5063434;28;20056;-76
2021/05/30 10:04:33;;;;;;;7.43;2.80;;;;;;;24.51;42.28;100320.44;5059848;28;20052;-75
2021/05/30 10:07:00;;;;;;;3.35;2.67;;;;;;;25.10;43.96;100346.34;5062751;28;20029;-74
2021/05/30 10:09:28;;;;;;;4.60;2.60;;;;;;;24.82;40.19;100243.19;5061355;28;20029;-75
2021/05/30 10:11:55;;;;;;;6.07;2.28;;;;;;;25.47;40.51;100336.63;5062914;28;20028;-72
2021/05/30 10:14:21;;;;;;;7.22;2.67;;;;;;;25.48;42.17;100346.28;5062454;28;20021;-73
2021/05/30 10:16:47;;;;;;;6.63;2.70;;;;;;;25.47;41.42;100332.22;5060195;28;20079;-74
2021/05/30 10:19:17;;;;;;;6.57;2.38;;;;;;;25.50;39.93;100336.56;5056830;28;20047;-77
2021/05/30 10:21:49;;;;;;;8.02;2.30;;;;;;;25.71;40.57;100336.84;5037595;28;20029;-74
2021/05/30 10:24:16;;;;;;;6.43;2.17;;;;;;;25.79;40.22;100346.28;5066091;28;20045;-76
2021/05/30 10:26:42;;;;;;;6.70;2.45;;;;;;;25.74;41.56;100332.34;5067426;28;20020;-76
2021/05/30 10:29:10;;;;;;;9.38;3.08;;;;;;;25.64;41.21;100334.38;5066219;28;20101;-77
2021/05/30 10:31:37;;;;;;;7.50;2.55;;;;;;;25.32;42.05;100349.31;5058572;28;20116;-77
2021/05/30 10:34:09;;;;;;;6.28;2.25;;;;;;;25.25;41.99;100349.53;5057441;28;20115;-72
2021/05/30 10:36:35;;;;;;;6.13;2.67;;;;;;;25.17;41.35;100349.69;5058049;28;20077;-74
2021/05/30 10:39:00;;;;;;;10.00;2.65;;;;;;;25.06;42.57;100338.53;5059309;28;20487;-73
2021/05/30 10:41:26;;;;;;;3.72;2.70;;;;;;;24.96;42.70;100349.34;5059460;28;20068;-71
2021/05/30 10:43:51;;;;;;;5.65;2.50;;;;;;;25.11;40.92;100342.81;5058997;28;20032;-72
2021/05/30 10:46:23;;;;;;;6.05;2.65;;;;;;;25.20;41.27;100339.06;5059759;28;20032;-72
2021/05/30 10:49:06;;;;;;;5.60;2.53;;;;;;;25.46;41.21;100334.88;5059162;28;20037;-73
2021/05/30 10:51:43;;;;;;;5.03;2.50;;;;;;;25.74;41.01;100336.78;5059060;28;20482;-75
2021/05/30 10:54:12;;;;;;;3.80;2.38;;;;;;;25.62;41.97;100283.34;5062279;28;20016;-76
2021/05/30 10:56:56;;;;;;;6.57;2.45;;;;;;;25.30;41.07;100292.13;5061424;28;20515;-73
2021/05/30 10:59:25;;;;;;;4.10;2.35;;;;;;;25.42;40.20;100330.59;5061984;28;20091;-75
2021/05/30 11:01:52;;;;;;;6.35;2.13;;;;;;;25.49;40.71;100338.31;5059830;28;20036;-79
2021/05/30 11:04:23;;;;;;;5.68;2.50;;;;;;;25.74;39.46;100345.56;5058175;28;20028;-76
2021/05/30 11:06:50;;;;;;;3.55;2.70;;;;;;;25.89;38.37;100338.97;5061906;28;20051;-76
2021/05/30 11:09:16;;;;;;;4.28;2.47;;;;;;;25.91;38.94;100297.50;5060760;28;20029;-74
2021/05/30 11:11:42;;;;;;;6.70;2.72;;;;;;;26.29;41.07;100335.19;5064976;28;20100;-74
2021/05/30 11:14:10;;;;;;;4.55;2.35;;;;;;;26.42;39.38;100324.22;5070937;28;20036;-74
2021/05/30 11:16:45;;;;;;;4.97;3.10;;;;;;;25.83;39.55;100273.03;5019852;28;20487;-76
2021/05/30 11:19:14;;;;;;;5.53;2.72;;;;;;;25.89;40.08;100323.09;5071367;28;20017;-73
2021/05/30 11:21:50;;;;;;;5.65;3.42;;;;;;;25.61;39.21;100321.25;5065495;28;20024;-74
2021/05/30 11:24:24;;;;;;;8.20;3.58;;;;;;;25.74;38.72;100334.97;5071308;28;20028;-75
2021/05/30 11:26:58;;;;;;;4.95;2.58;;;;;;;25.42;38.63;100325.31;5071429;28;20028;-75
2021/05/30 11:29:24;;;;;;;14.90;3.17;;;;;;;25.49;40.11;100325.09;5070515;28;20086;-74